Arnold, Kansas
Current Conditions -  °F | °C
As of 12:35 PM on Saturday 20 Dec 2014 (Local Time) from KHYS Reporting Station
Clear Clear  
Wind Chill: 42°   Ceiling: Unl
Heat Index: 46°   Visibility: 10mi
Dew Point: 32°   Wind: 8mph
Humidity: 57%   Direction: 210°SSW
Pressure: 30.04"   Gusts: NA
Location:  38.64°N, 100.05°W
Report Text: KHYS 201835Z AUTO 21007KT 10SM CLR 08/00 A3004 RMK AO1
Loading
Personal Weather Stations






























Interactive Weather Map New forecast layout! Learn more

10-Day Weather Forecast

Advertisements
Track Severe Weather on mobile